Time;durP1;ratioP1;P1;durP2;ratioP2;P2;SDS_P1;SDS_P2;PMS_P1;PMS_P2;Temp;Humidity;BMP_temperature;BMP_pressure;BME280_temperature;BME280_humidity;BME280_pressure;Samples;Min_cycle;Max_cycle;Signal;HPM_P1;HPM_P2
2023/04/02 00:02:16;;;;;;;7.53;6.80;;;7.10;99.90;;;;;;4977483;28;20459;-81
2023/04/02 00:04:44;;;;;;;9.40;7.40;;;7.10;99.90;;;;;;4978179;28;20470;-81
2023/04/02 00:07:29;;;;;;;7.73;6.87;;;7.00;99.90;;;;;;4978208;28;20471;-80
2023/04/02 00:09:56;;;;;;;8.83;7.90;;;7.00;99.90;;;;;;4978131;28;20450;-81
2023/04/02 00:12:23;;;;;;;8.63;7.10;;;7.00;99.90;;;;;;4977904;28;20499;-79
2023/04/02 00:14:54;;;;;;;9.57;7.90;;;7.00;99.90;;;;;;4978423;28;20459;-83
2023/04/02 00:17:23;;;;;;;9.83;8.63;;;7.00;99.90;;;;;;4979527;28;21021;-82
2023/04/02 00:19:57;;;;;;;8.23;7.30;;;6.90;99.90;;;;;;4978968;28;20832;-79
2023/04/02 00:22:27;;;;;;;9.37;8.40;;;7.00;99.90;;;;;;4977822;28;20904;-79
2023/04/02 00:24:56;;;;;;;9.67;7.60;;;7.00;99.90;;;;;;4978226;28;20461;-79
2023/04/02 00:27:23;;;;;;;9.37;8.27;;;7.00;99.90;;;;;;4977713;28;20476;-83
2023/04/02 00:29:51;;;;;;;7.13;6.40;;;6.90;99.90;;;;;;4977887;28;20459;-82
2023/04/02 00:32:22;;;;;;;9.67;6.90;;;6.90;99.90;;;;;;4977777;28;21011;-80
2023/04/02 00:34:49;;;;;;;7.00;6.30;;;6.80;99.90;;;;;;4978501;28;20465;-81
2023/04/02 00:37:22;;;;;;;7.30;6.37;;;6.80;99.90;;;;;;4979010;28;20501;-79
2023/04/02 00:39:51;;;;;;;6.30;5.50;;;6.70;99.90;;;;;;4978551;28;20455;-80
2023/04/02 00:42:19;;;;;;;6.43;5.83;;;6.70;99.90;;;;;;4976249;28;20444;-80
2023/04/02 00:44:48;;;;;;;8.10;6.90;;;6.70;99.90;;;;;;4977328;28;20465;-79
2023/04/02 00:47:20;;;;;;;9.27;8.10;;;6.70;99.90;;;;;;4977673;28;20485;-79
2023/04/02 00:49:50;;;;;;;6.83;6.13;;;6.60;99.90;;;;;;4977085;28;20452;-80
2023/04/02 00:52:23;;;;;;;8.90;6.00;;;6.60;99.90;;;;;;4976194;28;20489;-81
2023/04/02 00:54:54;;;;;;;6.07;5.27;;;6.60;99.90;;;;;;4977244;28;20428;-79
2023/04/02 00:57:24;;;;;;;6.50;5.90;;;6.60;99.90;;;;;;4977044;28;20495;-79
2023/04/02 00:59:57;;;;;;;6.70;5.97;;;6.60;99.90;;;;;;4978548;28;20458;-79
2023/04/02 01:02:28;;;;;;;8.00;6.07;;;6.50;99.90;;;;;;4977875;28;20467;-79
2023/04/02 01:04:57;;;;;;;6.37;5.03;;;6.50;99.90;;;;;;4976382;28;20538;-80
2023/04/02 01:07:47;;;;;;;6.07;5.07;;;6.50;99.90;;;;;;4977736;28;20485;-80
2023/04/02 01:10:42;;;;;;;4.90;4.40;;;6.50;99.90;;;;;;4978294;28;20463;-80
2023/04/02 01:13:20;;;;;;;5.10;4.60;;;6.50;99.90;;;;;;4977385;28;20497;-80
2023/04/02 01:15:54;;;;;;;5.73;5.20;;;6.50;99.90;;;;;;4978851;28;20667;-79
2023/04/02 01:18:33;;;;;;;5.87;5.17;;;6.50;99.90;;;;;;4978821;28;20486;-82
2023/04/02 01:21:14;;;;;;;5.93;4.87;;;6.50;99.90;;;;;;4964035;28;20451;-81
2023/04/02 01:23:52;;;;;;;5.43;4.70;;;6.40;99.90;;;;;;4978576;28;20460;-81
2023/04/02 01:26:32;;;;;;;6.07;4.80;;;6.30;99.90;;;;;;4979865;28;20450;-82
2023/04/02 01:29:06;;;;;;;7.10;5.73;;;6.40;99.90;;;;;;4979141;28;20850;-82
2023/04/02 01:31:34;;;;;;;5.90;4.70;;;6.30;99.90;;;;;;4977133;28;20488;-80
2023/04/02 01:34:03;;;;;;;5.80;4.03;;;6.30;99.90;;;;;;4977642;28;20515;-80
2023/04/02 01:36:37;;;;;;;4.30;3.73;;;6.30;99.90;;;;;;4978038;28;20451;-81
2023/04/02 01:39:14;;;;;;;4.77;4.10;;;6.20;99.90;;;;;;4977761;28;20549;-79
2023/04/02 01:41:47;;;;;;;4.83;4.43;;;6.30;99.90;;;;;;4977028;28;20969;-80
2023/04/02 01:44:21;;;;;;;4.37;3.90;;;6.30;99.90;;;;;;4979457;28;20532;-81
2023/04/02 01:46:49;;;;;;;5.00;4.20;;;6.30;99.90;;;;;;4980249;28;20457;-80
2023/04/02 01:49:19;;;;;;;5.23;4.73;;;6.20;99.90;;;;;;4981155;28;20480;-81
2023/04/02 01:51:51;;;;;;;5.83;4.90;;;6.20;99.90;;;;;;4980110;28;20488;-80
2023/04/02 01:54:20;;;;;;;5.33;4.80;;;6.20;99.90;;;;;;4979546;28;20466;-83
2023/04/02 01:56:47;;;;;;;5.80;5.23;;;6.20;99.90;;;;;;4980617;28;20558;-82
2023/04/02 01:59:18;;;;;;;6.20;5.60;;;6.20;99.90;;;;;;4981324;28;20440;-83
2023/04/02 02:01:50;;;;;;;5.23;4.03;;;6.20;99.90;;;;;;4979182;28;20849;-82
2023/04/02 02:04:18;;;;;;;6.37;5.07;;;6.20;99.90;;;;;;4982105;28;20459;-82
2023/04/02 02:06:45;;;;;;;5.70;4.80;;;6.20;99.90;;;;;;4980861;28;20466;-83
2023/04/02 02:09:17;;;;;;;4.80;4.40;;;6.20;99.90;;;;;;4980847;28;20454;-80
2023/04/02 02:11:44;;;;;;;5.07;4.50;;;6.10;99.90;;;;;;4980283;28;20484;-81
2023/04/02 02:14:17;;;;;;;5.50;4.53;;;6.00;99.90;;;;;;4982279;28;20462;-81
2023/04/02 02:16:46;;;;;;;7.07;5.37;;;6.00;99.90;;;;;;4980707;28;20461;-81
2023/04/02 02:19:24;;;;;;;9.20;4.70;;;6.10;99.90;;;;;;4982666;28;20453;-82
2023/04/02 02:21:52;;;;;;;5.87;5.27;;;6.00;99.90;;;;;;4980395;28;20456;-84
2023/04/02 02:24:23;;;;;;;5.87;4.83;;;6.00;99.90;;;;;;4983222;28;20457;-82
2023/04/02 02:26:59;;;;;;;7.50;5.80;;;6.00;99.90;;;;;;4981451;28;20456;-82
2023/04/02 02:29:30;;;;;;;5.63;5.03;;;6.00;99.90;;;;;;4982112;28;20463;-84
2023/04/02 02:31:59;;;;;;;5.27;4.77;;;6.00;99.90;;;;;;4986461;28;20491;-82
2023/04/02 02:34:32;;;;;;;5.00;4.50;;;6.00;99.90;;;;;;4988078;28;20493;-82
2023/04/02 02:37:04;;;;;;;9.43;4.43;;;6.00;99.90;;;;;;4986936;28;21068;-81
2023/04/02 02:39:37;;;;;;;8.17;4.93;;;6.00;99.90;;;;;;4976776;28;20491;-80
2023/04/02 02:42:11;;;;;;;7.17;5.30;;;5.90;99.90;;;;;;4972101;28;20446;-81
2023/04/02 02:44:44;;;;;;;5.03;4.53;;;5.90;99.90;;;;;;4956684;28;20461;-81
2023/04/02 02:47:15;;;;;;;7.87;5.20;;;6.00;99.90;;;;;;4971919;28;20480;-82
2023/04/02 02:49:45;;;;;;;6.17;5.53;;;6.00;99.90;;;;;;4976598;28;20906;-80
2023/04/02 02:52:16;;;;;;;5.77;5.10;;;6.00;99.90;;;;;;4975081;28;21029;-80
2023/04/02 02:54:46;;;;;;;5.23;4.10;;;5.90;99.90;;;;;;4976196;28;20449;-81
2023/04/02 02:57:18;;;;;;;5.43;4.60;;;5.90;99.90;;;;;;4975872;28;20482;-83
2023/04/02 02:59:47;;;;;;;4.80;4.33;;;5.80;99.90;;;;;;4976172;28;20455;-83
2023/04/02 03:02:15;;;;;;;4.60;4.20;;;5.80;99.90;;;;;;4974779;28;20463;-83
2023/04/02 03:04:47;;;;;;;5.70;4.73;;;5.80;99.90;;;;;;4975742;28;20461;-83
2023/04/02 03:07:15;;;;;;;5.80;4.37;;;5.70;99.90;;;;;;4974010;28;20492;-83
2023/04/02 03:09:51;;;;;;;6.77;5.33;;;5.80;99.90;;;;;;4974149;28;20463;-83
2023/04/02 03:12:36;;;;;;;5.37;4.67;;;5.80;99.90;;;;;;4973077;28;20488;-84
2023/04/02 03:15:13;;;;;;;4.77;4.13;;;5.80;99.90;;;;;;4974239;28;20458;-83
2023/04/02 03:17:45;;;;;;;6.93;5.60;;;5.80;99.90;;;;;;4975039;28;20480;-83
2023/04/02 03:20:17;;;;;;;5.53;4.43;;;5.80;99.90;;;;;;4977373;28;20457;-83
2023/04/02 03:22:51;;;;;;;4.83;4.27;;;5.90;99.90;;;;;;4976983;28;20457;-83
2023/04/02 03:25:27;;;;;;;5.37;4.87;;;5.90;99.90;;;;;;4978200;28;20488;-83
2023/04/02 03:27:59;;;;;;;5.80;4.10;;;5.80;99.90;;;;;;4978057;28;20837;-82
2023/04/02 03:30:33;;;;;;;5.43;4.20;;;5.80;99.90;;;;;;4976649;28;20454;-83
2023/04/02 03:33:05;;;;;;;6.47;5.00;;;5.80;99.90;;;;;;4963320;28;21031;-83
2023/04/02 03:35:35;;;;;;;6.23;4.63;;;5.70;99.90;;;;;;4977021;28;20469;-83
2023/04/02 03:38:06;;;;;;;6.53;5.30;;;5.60;99.90;;;;;;4977907;28;20484;-83
2023/04/02 03:40:38;;;;;;;6.70;5.10;;;5.50;99.90;;;;;;4973818;28;20807;-83
2023/04/02 03:43:12;;;;;;;9.27;6.37;;;5.50;99.90;;;;;;4976481;28;20491;-82
2023/04/02 03:45:44;;;;;;;7.17;5.20;;;5.40;99.90;;;;;;4975639;28;20476;-82
2023/04/02 03:48:15;;;;;;;5.70;5.10;;;5.40;99.90;;;;;;4977013;28;20561;-83
2023/04/02 03:50:47;;;;;;;5.70;5.10;;;5.50;99.90;;;;;;4974612;28;20433;-83
2023/04/02 03:53:14;;;;;;;11.10;5.67;;;5.40;99.90;;;;;;4968943;28;20492;-82
2023/04/02 03:55:42;;;;;;;6.37;5.77;;;5.40;99.90;;;;;;4976703;28;20462;-83
2023/04/02 03:58:16;;;;;;;8.67;6.00;;;5.40;99.90;;;;;;4972657;28;20982;-83
2023/04/02 04:00:52;;;;;;;7.10;4.87;;;5.40;99.90;;;;;;4970583;28;20493;-82
2023/04/02 04:03:24;;;;;;;7.93;7.10;;;5.40;99.90;;;;;;4978456;28;20476;-83
2023/04/02 04:05:55;;;;;;;7.60;6.07;;;5.40;99.90;;;;;;4977545;28;20461;-82
2023/04/02 04:08:25;;;;;;;8.57;7.23;;;5.30;99.90;;;;;;4977487;28;20563;-82
2023/04/02 04:10:56;;;;;;;9.30;6.80;;;5.40;99.90;;;;;;4975814;28;20457;-83
2023/04/02 04:13:31;;;;;;;6.10;5.47;;;5.40;99.90;;;;;;4977766;28;20868;-81
2023/04/02 04:16:04;;;;;;;9.30;7.27;;;5.40;99.90;;;;;;4976253;28;20460;-82
2023/04/02 04:18:36;;;;;;;9.60;6.13;;;5.30;99.90;;;;;;4970837;28;20477;-83
2023/04/02 04:21:10;;;;;;;8.03;6.10;;;5.30;99.90;;;;;;4976685;28;20460;-81
2023/04/02 04:23:39;;;;;;;10.50;7.10;;;5.30;99.90;;;;;;4977984;28;20443;-82
2023/04/02 04:26:18;;;;;;;11.00;7.23;;;5.10;99.90;;;;;;4977594;28;20461;-82
2023/04/02 04:28:57;;;;;;;12.73;7.90;;;5.20;99.90;;;;;;4977833;28;20844;-84
2023/04/02 04:31:32;;;;;;;11.03;7.70;;;5.20;99.90;;;;;;4976760;28;20499;-82
2023/04/02 04:34:05;;;;;;;11.63;7.33;;;5.10;99.90;;;;;;4976689;28;20518;-83
2023/04/02 04:36:40;;;;;;;8.90;6.50;;;5.10;99.90;;;;;;4975970;28;20835;-82
2023/04/02 04:39:13;;;;;;;9.00;7.97;;;5.10;99.90;;;;;;4976200;28;20453;-82
2023/04/02 04:41:43;;;;;;;13.07;6.00;;;5.10;99.90;;;;;;4975306;28;20464;-82
2023/04/02 04:44:16;;;;;;;9.20;7.07;;;5.10;99.90;;;;;;4977852;28;20467;-82
2023/04/02 04:46:49;;;;;;;10.50;7.20;;;5.00;99.90;;;;;;4997684;28;20456;-83
2023/04/02 04:49:20;;;;;;;9.27;7.03;;;5.00;99.90;;;;;;4997225;28;20445;-84
2023/04/02 04:51:50;;;;;;;10.10;8.13;;;4.90;99.90;;;;;;4993539;28;20488;-83
2023/04/02 04:54:19;;;;;;;17.00;8.67;;;4.90;99.90;;;;;;4983973;28;20488;-84
2023/04/02 04:56:48;;;;;;;11.40;7.63;;;5.00;99.90;;;;;;4983254;28;20467;-84
2023/04/02 04:59:21;;;;;;;11.17;7.70;;;4.90;99.90;;;;;;4977490;28;20532;-84
2023/04/02 05:01:58;;;;;;;13.90;7.10;;;4.90;99.90;;;;;;4968814;28;20463;-83
2023/04/02 05:04:29;;;;;;;11.00;8.07;;;5.00;99.90;;;;;;4979372;28;20511;-83
2023/04/02 05:07:02;;;;;;;12.63;7.20;;;5.00;99.90;;;;;;4978585;28;20482;-83
2023/04/02 05:09:33;;;;;;;12.70;7.97;;;5.00;99.90;;;;;;4980605;28;21015;-82
2023/04/02 05:12:10;;;;;;;10.30;7.53;;;5.00;99.90;;;;;;4980480;28;20452;-84
2023/04/02 05:14:43;;;;;;;14.10;8.10;;;4.90;99.90;;;;;;4982301;28;20444;-82
2023/04/02 05:17:17;;;;;;;12.70;7.63;;;5.00;99.90;;;;;;4982640;28;20527;-82
2023/04/02 05:19:50;;;;;;;8.67;6.67;;;4.90;99.90;;;;;;4982918;28;20460;-82
2023/04/02 05:22:24;;;;;;;9.63;7.53;;;4.90;99.90;;;;;;4979213;28;20450;-85
2023/04/02 05:24:58;;;;;;;12.87;8.10;;;4.90;99.90;;;;;;4977730;28;20451;-81
2023/04/02 05:27:34;;;;;;;12.47;7.07;;;4.80;99.90;;;;;;4978553;28;20856;-82
2023/04/02 05:30:09;;;;;;;10.67;7.37;;;5.00;99.90;;;;;;4978043;28;20455;-82
2023/04/02 05:32:42;;;;;;;11.33;6.83;;;4.80;99.90;;;;;;4977110;28;20447;-82
2023/04/02 05:35:15;;;;;;;12.03;6.80;;;4.80;99.90;;;;;;4978144;28;20467;-83
2023/04/02 05:37:43;;;;;;;14.13;6.73;;;4.80;99.90;;;;;;4977735;28;20489;-83
2023/04/02 05:40:15;;;;;;;13.43;7.63;;;4.80;99.90;;;;;;4976670;28;20559;-82
2023/04/02 05:42:45;;;;;;;9.20;6.90;;;4.80;99.90;;;;;;4976703;28;20465;-84
2023/04/02 05:45:25;;;;;;;11.60;6.30;;;4.80;99.90;;;;;;4977177;28;20458;-84
2023/04/02 05:47:58;;;;;;;8.73;5.10;;;4.90;99.90;;;;;;4976764;28;20482;-83
2023/04/02 05:50:30;;;;;;;12.37;6.77;;;4.90;99.90;;;;;;4975264;28;20523;-86
2023/04/02 05:53:03;;;;;;;9.20;6.17;;;4.90;99.90;;;;;;4973447;28;20526;-85
2023/04/02 05:55:38;;;;;;;11.77;7.10;;;4.80;99.90;;;;;;4974592;28;20453;-86
2023/04/02 05:58:08;;;;;;;10.00;6.83;;;4.70;99.90;;;;;;4975810;28;20905;-86
2023/04/02 06:00:52;;;;;;;10.57;6.40;;;4.70;99.90;;;;;;4978267;28;20456;-84
2023/04/02 06:03:26;;;;;;;12.77;6.07;;;4.70;99.90;;;;;;4978477;28;20459;-85
2023/04/02 06:05:55;;;;;;;12.33;7.07;;;4.70;99.90;;;;;;4977646;28;20466;-83
2023/04/02 06:08:26;;;;;;;10.20;6.20;;;4.80;99.90;;;;;;4976897;28;20471;-83
2023/04/02 06:11:00;;;;;;;13.30;5.80;;;4.70;99.90;;;;;;4976246;28;20443;-84
2023/04/02 06:13:28;;;;;;;16.47;6.77;;;4.70;99.90;;;;;;4977821;28;20477;-83
2023/04/02 06:15:55;;;;;;;17.33;5.60;;;4.70;99.90;;;;;;4977481;28;20460;-84
2023/04/02 06:18:25;;;;;;;11.20;5.47;;;4.80;99.90;;;;;;4981636;28;21055;-84
2023/04/02 06:20:53;;;;;;;10.17;6.17;;;4.70;99.90;;;;;;4988901;28;20526;-82
2023/04/02 06:23:23;;;;;;;10.20;6.03;;;4.80;99.90;;;;;;4988491;28;20478;-83
2023/04/02 06:25:55;;;;;;;11.00;7.53;;;4.80;99.90;;;;;;4982141;28;20538;-82
2023/04/02 06:28:27;;;;;;;8.23;5.50;;;4.80;99.90;;;;;;4976863;28;21000;-83
2023/04/02 06:31:01;;;;;;;11.37;6.40;;;4.70;99.90;;;;;;4975577;28;20456;-81
2023/04/02 06:33:29;;;;;;;11.00;6.20;;;4.70;99.90;;;;;;4976448;28;20575;-84
2023/04/02 06:35:56;;;;;;;8.73;6.00;;;4.60;99.90;;;;;;4979551;28;20463;-82
2023/04/02 06:38:28;;;;;;;12.17;7.00;;;4.70;99.90;;;;;;4972339;28;21024;-82
2023/04/02 06:40:57;;;;;;;7.30;6.43;;;4.70;99.90;;;;;;4979590;28;20493;-81
2023/04/02 06:43:32;;;;;;;9.33;6.83;;;4.60;99.90;;;;;;4979939;28;20455;-83
2023/04/02 06:46:02;;;;;;;12.97;6.00;;;4.60;99.90;;;;;;4979504;28;20518;-82
2023/04/02 06:48:31;;;;;;;12.90;6.57;;;4.60;99.90;;;;;;4979078;28;20488;-82
2023/04/02 06:51:03;;;;;;;9.30;6.10;;;4.70;99.90;;;;;;4976423;28;20499;-84
2023/04/02 06:53:34;;;;;;;13.40;6.57;;;4.80;99.90;;;;;;4977387;28;20483;-82
2023/04/02 06:56:04;;;;;;;9.47;7.03;;;4.80;99.90;;;;;;4982043;28;20443;-82
2023/04/02 06:58:31;;;;;;;12.53;6.73;;;4.70;99.90;;;;;;4980502;28;20489;-82
2023/04/02 07:00:58;;;;;;;10.43;5.60;;;4.70;99.90;;;;;;4983189;28;20524;-83
2023/04/02 07:03:27;;;;;;;8.37;6.23;;;4.80;99.90;;;;;;4984477;28;20495;-82
2023/04/02 07:05:57;;;;;;;9.03;5.27;;;4.80;99.90;;;;;;4980623;28;20490;-83
2023/04/02 07:08:24;;;;;;;10.30;5.60;;;4.90;99.90;;;;;;4981403;28;20476;-82
2023/04/02 07:10:51;;;;;;;10.13;4.60;;;4.90;99.90;;;;;;4982859;28;20571;-82
2023/04/02 07:13:19;;;;;;;9.57;4.57;;;5.00;99.90;;;;;;4978673;28;20579;-81
2023/04/02 07:15:49;;;;;;;12.17;4.93;;;5.00;99.90;;;;;;4982105;28;20539;-82
2023/04/02 07:18:23;;;;;;;10.67;4.60;;;5.10;99.90;;;;;;4981889;28;20490;-82
2023/04/02 07:20:53;;;;;;;8.63;4.60;;;5.20;99.90;;;;;;4980530;28;20454;-84
2023/04/02 07:23:21;;;;;;;6.07;4.00;;;5.20;99.90;;;;;;4980382;28;20455;-82
2023/04/02 07:25:49;;;;;;;7.70;4.47;;;5.30;99.90;;;;;;4980634;28;20464;-82
2023/04/02 07:28:16;;;;;;;7.80;4.67;;;5.30;99.90;;;;;;4980154;28;20487;-82
2023/04/02 07:30:44;;;;;;;6.53;4.40;;;5.40;99.90;;;;;;4977641;28;20526;-82
2023/04/02 07:33:13;;;;;;;7.30;3.93;;;5.20;99.90;;;;;;4977679;28;20462;-82
2023/04/02 07:35:40;;;;;;;6.90;3.80;;;5.30;99.90;;;;;;4976849;28;20460;-81
2023/04/02 07:38:07;;;;;;;7.10;3.70;;;5.30;99.90;;;;;;4977410;28;20483;-82
2023/04/02 07:40:36;;;;;;;7.03;4.27;;;5.30;99.90;;;;;;4972299;28;20480;-81
2023/04/02 07:43:03;;;;;;;5.23;4.00;;;5.30;99.90;;;;;;4980935;28;20456;-81
2023/04/02 07:45:30;;;;;;;5.80;4.30;;;5.40;99.90;;;;;;4981908;28;20452;-83
2023/04/02 07:47:57;;;;;;;10.30;4.47;;;5.30;99.90;;;;;;4975365;28;20515;-82
2023/04/02 07:50:24;;;;;;;5.37;3.40;;;5.30;99.90;;;;;;4971201;28;20464;-81
2023/04/02 07:52:51;;;;;;;11.03;5.17;;;5.40;99.90;;;;;;4976668;28;20468;-83
2023/04/02 07:55:18;;;;;;;10.50;4.63;;;5.40;99.90;;;;;;4983107;28;20495;-84
2023/04/02 07:57:51;;;;;;;8.00;3.73;;;5.30;99.90;;;;;;4980637;28;20574;-83
2023/04/02 08:00:19;;;;;;;8.03;4.87;;;5.40;99.90;;;;;;4981827;28;20591;-84
2023/04/02 08:02:46;;;;;;;6.30;4.50;;;5.50;99.90;;;;;;4981782;28;20465;-84
2023/04/02 08:05:14;;;;;;;8.87;4.40;;;5.30;99.90;;;;;;4986847;28;20422;-84
2023/04/02 08:07:41;;;;;;;6.93;4.73;;;5.30;99.90;;;;;;4988330;28;20537;-83
2023/04/02 08:10:10;;;;;;;8.33;4.00;;;5.30;99.90;;;;;;4987446;28;20545;-84
2023/04/02 08:12:37;;;;;;;5.10;4.60;;;5.40;99.90;;;;;;4987485;28;20906;-82
2023/04/02 08:15:07;;;;;;;6.20;4.20;;;5.50;99.90;;;;;;4989698;28;20967;-84
2023/04/02 08:17:34;;;;;;;6.67;3.73;;;5.60;99.90;;;;;;4985108;28;20559;-83
2023/04/02 08:20:01;;;;;;;6.23;4.47;;;5.60;99.90;;;;;;4976364;28;20475;-81
2023/04/02 08:22:28;;;;;;;5.47;3.90;;;5.60;99.90;;;;;;4975619;28;20895;-80
2023/04/02 08:24:56;;;;;;;9.67;4.23;;;5.60;99.90;;;;;;4978391;28;20435;-83
2023/04/02 08:27:23;;;;;;;5.60;4.13;;;5.60;99.90;;;;;;4979353;28;20526;-83
2023/04/02 08:29:50;;;;;;;5.50;3.87;;;5.70;99.90;;;;;;4978509;28;21024;-82
2023/04/02 08:32:18;;;;;;;5.70;4.13;;;5.70;99.90;;;;;;4975910;28;20824;-83
2023/04/02 08:34:45;;;;;;;10.83;4.20;;;5.60;99.90;;;;;;4976436;28;20555;-83
2023/04/02 08:37:13;;;;;;;10.50;5.27;;;5.70;99.90;;;;;;4976189;28;20487;-83
2023/04/02 08:39:40;;;;;;;6.93;4.30;;;5.70;99.90;;;;;;4976828;28;20465;-83
2023/04/02 08:42:18;;;;;;;6.60;4.53;;;5.70;99.90;;;;;;4975029;28;20443;-83
2023/04/02 08:44:56;;;;;;;9.90;4.73;;;5.90;99.90;;;;;;4957248;28;20458;-83
2023/04/02 08:47:25;;;;;;;6.20;4.00;;;6.10;99.90;;;;;;4957114;28;20474;-82
2023/04/02 08:49:57;;;;;;;7.00;4.30;;;6.10;99.90;;;;;;4973485;28;20481;-84
2023/04/02 08:52:27;;;;;;;7.40;4.13;;;6.30;99.90;;;;;;4975359;28;20898;-82
2023/04/02 08:54:55;;;;;;;8.00;3.23;;;6.30;99.90;;;;;;4956696;28;20496;-83
2023/04/02 08:57:29;;;;;;;5.70;3.47;;;6.30;99.90;;;;;;4965627;28;20561;-83
2023/04/02 09:00:01;;;;;;;5.20;3.30;;;6.50;99.90;;;;;;4976217;28;20959;-82
2023/04/02 09:02:38;;;;;;;5.47;3.50;;;6.60;99.90;;;;;;4975874;28;20457;-82
2023/04/02 09:05:15;;;;;;;6.27;3.30;;;6.50;99.90;;;;;;4975381;28;20461;-83
2023/04/02 09:07:42;;;;;;;7.20;4.00;;;6.40;99.90;;;;;;4975773;28;20479;-83
2023/04/02 09:10:13;;;;;;;5.23;3.10;;;6.20;99.90;;;;;;4975859;28;20461;-84
2023/04/02 09:12:45;;;;;;;5.07;2.73;;;6.30;99.90;;;;;;4974993;28;20950;-83
2023/04/02 09:15:23;;;;;;;6.07;2.90;;;6.30;99.90;;;;;;4975039;28;20495;-82
2023/04/02 09:17:56;;;;;;;5.60;2.77;;;6.40;99.90;;;;;;4975419;28;20568;-82
2023/04/02 09:20:26;;;;;;;7.03;3.07;;;6.50;99.90;;;;;;4975891;28;20449;-83
2023/04/02 09:22:54;;;;;;;5.00;2.90;;;6.60;99.90;;;;;;4977866;28;20829;-83
2023/04/02 09:25:25;;;;;;;5.93;2.93;;;6.80;99.90;;;;;;4976145;28;20469;-82
2023/04/02 09:27:54;;;;;;;9.70;3.20;;;6.90;99.90;;;;;;4956583;28;20511;-83
2023/04/02 09:30:33;;;;;;;3.23;2.40;;;6.80;99.90;;;;;;4973035;28;20533;-82
2023/04/02 09:33:06;;;;;;;7.70;2.70;;;6.70;99.90;;;;;;4975724;28;20921;-83
2023/04/02 09:35:33;;;;;;;5.30;2.57;;;6.50;99.90;;;;;;4975858;28;20489;-82
2023/04/02 09:38:20;;;;;;;5.80;2.50;;;6.50;99.90;;;;;;4976348;28;20836;-82
2023/04/02 09:40:50;;;;;;;5.80;2.60;;;6.60;99.90;;;;;;4975231;28;20967;-82
2023/04/02 09:43:18;;;;;;;3.90;2.53;;;6.60;99.90;;;;;;4975419;28;20962;-83
2023/04/02 09:45:57;;;;;;;7.03;2.53;;;6.40;99.90;;;;;;4976245;28;20458;-82
2023/04/02 09:48:29;;;;;;;5.20;2.70;;;6.40;99.90;;;;;;4980681;28;20477;-84
2023/04/02 09:51:11;;;;;;;3.17;2.67;;;6.60;99.90;;;;;;4988936;28;20464;-83
2023/04/02 09:53:39;;;;;;;6.40;2.70;;;6.70;99.90;;;;;;4989991;28;20477;-84
2023/04/02 09:56:12;;;;;;;6.80;2.80;;;6.80;99.90;;;;;;4990958;28;20461;-84
2023/04/02 09:58:39;;;;;;;5.70;2.97;;;7.00;99.90;;;;;;4992930;28;20569;-85
2023/04/02 10:01:09;;;;;;;5.67;3.13;;;7.10;99.90;;;;;;4987892;28;20506;-84
2023/04/02 10:03:37;;;;;;;3.13;2.70;;;7.10;99.90;;;;;;4983575;28;20483;-83
2023/04/02 10:06:08;;;;;;;3.50;2.17;;;7.30;99.90;;;;;;4992552;28;20466;-85
2023/04/02 10:08:36;;;;;;;4.00;2.20;;;7.40;99.90;;;;;;4992929;28;20507;-84
2023/04/02 10:11:08;;;;;;;6.23;3.10;;;7.20;99.90;;;;;;4982497;28;20494;-83
2023/04/02 10:13:44;;;;;;;3.57;2.50;;;7.20;99.90;;;;;;4980587;28;20465;-84
2023/04/02 10:16:15;;;;;;;8.83;3.73;;;7.40;99.90;;;;;;4982492;28;20478;-84
2023/04/02 10:18:49;;;;;;;4.50;2.90;;;7.30;99.90;;;;;;4981170;28;20485;-85
2023/04/02 10:21:20;;;;;;;3.10;2.33;;;7.40;99.90;;;;;;4982012;28;20462;-86
2023/04/02 10:23:47;;;;;;;4.77;2.60;;;7.50;99.90;;;;;;4982963;28;20467;-86
2023/04/02 10:26:42;;;;;;;2.60;2.13;;;7.60;99.90;;;;;;4981400;28;21006;-86
2023/04/02 10:29:33;;;;;;;3.93;2.47;;;7.50;99.90;;;;;;4983625;28;20489;-85
2023/04/02 10:32:07;;;;;;;3.83;2.70;;;7.50;99.90;;;;;;4981878;28;20479;-84
2023/04/02 10:34:43;;;;;;;4.80;1.87;;;7.50;99.90;;;;;;4984145;28;20477;-84
2023/04/02 10:37:34;;;;;;;3.50;2.20;;;7.60;99.90;;;;;;4983847;28;20490;-84
2023/04/02 10:40:10;;;;;;;2.63;1.97;;;7.70;99.90;;;;;;4985039;28;20475;-84
2023/04/02 10:42:42;;;;;;;3.47;1.77;;;7.70;99.90;;;;;;4971726;28;20468;-86
2023/04/02 10:45:20;;;;;;;3.30;2.00;;;7.80;99.90;;;;;;4965568;28;20489;-85
2023/04/02 10:47:54;;;;;;;5.77;2.83;;;7.60;99.90;;;;;;4965965;28;20547;-85
2023/04/02 10:50:31;;;;;;;3.40;2.00;;;7.30;99.90;;;;;;4967314;28;20538;-85
2023/04/02 10:53:06;;;;;;;5.73;2.77;;;7.40;99.90;;;;;;4970944;28;20457;-83
2023/04/02 10:55:42;;;;;;;4.10;2.77;;;7.40;99.90;;;;;;4973635;28;20490;-83
2023/04/02 10:58:20;;;;;;;3.93;2.87;;;7.40;99.90;;;;;;4969560;28;21126;-84
2023/04/02 11:00:48;;;;;;;3.60;2.60;;;7.70;99.90;;;;;;4968892;28;20464;-84
2023/04/02 11:03:23;;;;;;;3.63;3.00;;;7.70;99.90;;;;;;4972862;28;20952;-83
2023/04/02 11:05:55;;;;;;;6.50;2.80;;;7.80;99.90;;;;;;4977627;28;20514;-85
2023/04/02 11:08:25;;;;;;;6.00;2.87;;;7.60;99.90;;;;;;4961036;28;20485;-84
2023/04/02 11:10:57;;;;;;;5.07;2.47;;;7.50;99.90;;;;;;4979688;28;20490;-85
2023/04/02 11:13:28;;;;;;;4.97;2.23;;;7.80;99.90;;;;;;4973828;28;20516;-84
2023/04/02 11:15:55;;;;;;;5.80;3.07;;;8.10;99.90;;;;;;4970554;28;20586;-82
2023/04/02 11:18:26;;;;;;;4.00;2.57;;;8.10;99.90;;;;;;4972077;28;20559;-85
2023/04/02 11:21:03;;;;;;;6.17;2.27;;;8.10;99.90;;;;;;4973167;28;20538;-84
2023/04/02 11:23:36;;;;;;;2.67;1.93;;;7.90;99.90;;;;;;4970828;28;20520;-85
2023/04/02 11:26:32;;;;;;;3.10;2.27;;;7.90;99.90;;;;;;4969794;28;20508;-84
2023/04/02 11:29:09;;;;;;;2.77;2.30;;;8.20;99.90;;;;;;4973323;28;20479;-84
2023/04/02 11:31:36;;;;;;;13.53;2.90;;;8.20;99.90;;;;;;4981289;28;20935;-83
2023/04/02 11:34:03;;;;;;;3.50;2.40;;;8.40;99.90;;;;;;4965016;28;20456;-85
2023/04/02 11:37:01;;;;;;;4.57;2.30;;;8.40;99.90;;;;;;4961988;28;20885;-84
2023/04/02 11:39:54;;;;;;;3.43;2.00;;;8.50;99.90;;;;;;4970942;28;20466;-84
2023/04/02 11:42:30;;;;;;;4.90;2.90;;;8.50;99.90;;;;;;4980034;28;20447;-84
2023/04/02 11:45:00;;;;;;;3.97;1.90;;;8.30;99.90;;;;;;4979976;28;20420;-83
2023/04/02 11:47:28;;;;;;;4.90;1.97;;;8.00;99.90;;;;;;4980331;28;21095;-85
2023/04/02 11:50:04;;;;;;;3.00;2.00;;;8.40;99.90;;;;;;4980420;28;20667;-84
2023/04/02 11:52:38;;;;;;;3.23;1.87;;;8.60;99.90;;;;;;4979675;28;20485;-84
2023/04/02 11:55:26;;;;;;;4.50;2.43;;;8.40;99.90;;;;;;4982219;28;20939;-84
2023/04/02 11:58:27;;;;;;;3.80;1.90;;;8.40;99.90;;;;;;4982386;28;20487;-84
2023/04/02 12:01:21;;;;;;;2.53;1.70;;;8.40;99.90;;;;;;4961882;28;21350;-85
2023/04/02 12:04:06;;;;;;;2.97;1.80;;;8.50;99.90;;;;;;4975905;28;20527;-84
2023/04/02 12:06:47;;;;;;;3.63;2.07;;;8.40;99.90;;;;;;4978005;28;20543;-83
2023/04/02 12:09:21;;;;;;;6.50;2.57;;;8.60;99.90;;;;;;4974933;28;20449;-84
2023/04/02 12:11:48;;;;;;;4.93;1.70;;;8.50;99.90;;;;;;4968026;28;20452;-83
2023/04/02 12:14:41;;;;;;;2.40;1.40;;;8.60;99.90;;;;;;4967325;28;20540;-84
2023/04/02 12:17:17;;;;;;;2.10;1.50;;;8.50;99.90;;;;;;4973096;28;20479;-84
2023/04/02 12:19:48;;;;;;;2.23;1.40;;;8.30;99.90;;;;;;4972625;28;20475;-84
2023/04/02 12:22:20;;;;;;;3.43;1.83;;;8.30;99.90;;;;;;4972167;28;20536;-83
2023/04/02 12:24:49;;;;;;;3.30;2.00;;;8.40;99.90;;;;;;4988094;28;20495;-83
2023/04/02 12:27:22;;;;;;;4.43;1.90;;;8.40;99.90;;;;;;4991359;28;20499;-82
2023/04/02 12:29:49;;;;;;;4.13;1.93;;;8.40;99.90;;;;;;4987639;28;20524;-83
2023/04/02 12:32:21;;;;;;;2.33;1.70;;;8.50;99.90;;;;;;4973788;28;20456;-84
2023/04/02 12:34:49;;;;;;;4.17;1.70;;;8.60;99.90;;;;;;4975555;28;20451;-84
2023/04/02 12:37:25;;;;;;;4.53;1.70;;;8.60;99.90;;;;;;4974406;28;20474;-84
2023/04/02 12:39:56;;;;;;;3.97;1.67;;;8.50;99.90;;;;;;4975236;28;20527;-85
2023/04/02 12:42:27;;;;;;;5.10;1.70;;;8.50;99.90;;;;;;4971728;28;20456;-84
2023/04/02 12:44:55;;;;;;;4.53;1.93;;;8.60;99.90;;;;;;4973208;28;20456;-84
2023/04/02 12:47:22;;;;;;;3.33;1.90;;;8.60;99.90;;;;;;4977024;28;20519;-83
2023/04/02 12:49:50;;;;;;;5.13;2.40;;;8.40;99.90;;;;;;4974098;28;20506;-83
2023/04/02 12:52:19;;;;;;;4.00;1.80;;;8.10;99.90;;;;;;4976927;28;20455;-85
2023/04/02 12:54:49;;;;;;;4.10;2.10;;;8.10;99.90;;;;;;4976199;28;20456;-85
2023/04/02 12:57:41;;;;;;;3.77;1.93;;;8.40;99.90;;;;;;4978267;28;20511;-84
2023/04/02 13:00:29;;;;;;;3.00;2.00;;;8.20;99.90;;;;;;4975184;28;20459;-86
2023/04/02 13:03:01;;;;;;;5.23;1.80;;;8.20;99.90;;;;;;4973243;28;20888;-84
2023/04/02 13:05:38;;;;;;;3.03;1.63;;;8.40;99.90;;;;;;4975345;28;20445;-85
2023/04/02 13:08:05;;;;;;;3.97;1.93;;;8.70;99.90;;;;;;4974401;28;20512;-86
2023/04/02 13:10:32;;;;;;;5.10;2.20;;;9.20;99.90;;;;;;4975094;28;20445;-84
2023/04/02 13:13:02;;;;;;;6.90;2.20;;;9.20;99.90;;;;;;4975460;28;20447;-84
2023/04/02 13:15:31;;;;;;;3.60;1.60;;;9.20;99.90;;;;;;4978243;28;20845;-84
2023/04/02 13:18:14;;;;;;;5.93;2.43;;;9.10;99.90;;;;;;4973380;28;21013;-85
2023/04/02 13:20:42;;;;;;;2.33;1.40;;;9.00;99.90;;;;;;4973860;28;20469;-85
2023/04/02 13:23:33;;;;;;;4.83;2.47;;;9.20;99.90;;;;;;4974350;28;21216;-84